Terminal Aerodrome Forecast
Issued by NWS

Home | Current Version | Previous Version | Text Only | Print | Product List | Glossary On
Versions: 1 2 3 4 5 6 7 8 9 10 11 12 13 14 15 16 17 18 19 20 21 22 23 24
000
FTUS43 KAPX 011300 AAA
TAFPLN
TAF AMD
KPLN 011340Z 0114/0212 09004KT P6SM OVC004
     FM011500 09005KT P6SM OVC008
     FM012000 13007KT P6SM BKN025
     FM020000 12003KT P6SM SCT035
     FM020800 15005KT P6SM -RA OVC050=

USA.gov is the U.S. government's official web portal to all federal, state and local government web resources and services.